Time;durP1;ratioP1;P1;durP2;ratioP2;P2;SDS_P1;SDS_P2;PMS_P1;PMS_P2;Temp;Humidity;BMP_temperature;BMP_pressure;BME280_temperature;BME280_humidity;BME280_pressure;Samples;Min_cycle;Max_cycle;Signal;HPM_P1;HPM_P2
2023/09/22 00:01:46;;;;;;;4.82;3.05;;;20.70;99.90;;;;;;5012239;28;20205;-73
2023/09/22 00:04:12;;;;;;;5.78;3.80;;;20.70;99.90;;;;;;5014194;28;20220;-73
2023/09/22 00:06:38;;;;;;;7.25;3.63;;;20.70;99.90;;;;;;5013994;28;20197;-73
2023/09/22 00:09:08;;;;;;;4.82;3.45;;;20.60;99.90;;;;;;5013958;28;20193;-73
2023/09/22 00:11:35;;;;;;;5.10;2.95;;;20.60;99.90;;;;;;5013527;28;20255;-73
2023/09/22 00:14:01;;;;;;;5.03;2.83;;;20.60;99.90;;;;;;5011977;28;20693;-72
2023/09/22 00:16:27;;;;;;;5.78;3.30;;;20.70;99.90;;;;;;5013608;28;20284;-73
2023/09/22 00:18:52;;;;;;;4.80;3.22;;;20.70;99.90;;;;;;5013606;28;20270;-72
2023/09/22 00:21:19;;;;;;;5.68;2.80;;;20.70;99.90;;;;;;5012490;28;20617;-73
2023/09/22 00:23:44;;;;;;;5.68;3.10;;;20.70;99.90;;;;;;5013406;28;20933;-72
2023/09/22 00:26:10;;;;;;;4.88;3.63;;;20.70;99.90;;;;;;5012197;28;20239;-73
2023/09/22 00:28:36;;;;;;;6.88;3.00;;;20.70;99.90;;;;;;5013129;28;20587;-73
2023/09/22 00:31:01;;;;;;;5.93;3.53;;;20.70;99.90;;;;;;5012732;28;20217;-73
2023/09/22 00:33:27;;;;;;;4.95;2.78;;;20.60;99.90;;;;;;5013769;28;20266;-72
2023/09/22 00:35:52;;;;;;;5.18;3.40;;;20.60;99.90;;;;;;5012894;28;20307;-72
2023/09/22 00:38:18;;;;;;;7.13;3.63;;;20.60;99.90;;;;;;5013263;28;20205;-72
2023/09/22 00:40:44;;;;;;;4.55;3.72;;;20.50;99.90;;;;;;5012722;28;20228;-73
2023/09/22 00:43:11;;;;;;;10.13;4.07;;;20.60;99.90;;;;;;5011872;28;20217;-73
2023/09/22 00:45:47;;;;;;;6.75;4.00;;;20.50;99.90;;;;;;5011576;28;20180;-73
2023/09/22 00:48:31;;;;;;;5.38;3.70;;;20.50;99.90;;;;;;5012519;28;20173;-73
2023/09/22 00:50:57;;;;;;;5.20;3.58;;;20.50;99.90;;;;;;5009689;28;20205;-72
2023/09/22 00:53:24;;;;;;;9.65;4.45;;;20.60;99.90;;;;;;5011677;28;20216;-73
2023/09/22 00:55:52;;;;;;;4.82;3.80;;;20.60;99.90;;;;;;5012659;28;20201;-71
2023/09/22 00:58:18;;;;;;;6.45;3.60;;;20.60;99.90;;;;;;5008009;28;20721;-72
2023/09/22 01:00:49;;;;;;;4.60;3.75;;;20.70;99.90;;;;;;5008776;28;20196;-72
2023/09/22 01:03:19;;;;;;;6.75;4.60;;;20.60;99.90;;;;;;5008316;28;20273;-73
2023/09/22 01:05:45;;;;;;;7.22;3.95;;;20.60;99.90;;;;;;5012823;28;20209;-73
2023/09/22 01:08:12;;;;;;;7.82;4.10;;;20.70;99.90;;;;;;5009421;28;20580;-73
2023/09/22 01:10:45;;;;;;;6.15;4.13;;;20.60;99.90;;;;;;5012639;28;20263;-73
2023/09/22 01:13:10;;;;;;;11.15;5.10;;;20.60;99.90;;;;;;5011159;28;20267;-73
2023/09/22 01:15:40;;;;;;;6.40;4.57;;;20.50;99.90;;;;;;5011125;28;20551;-73
2023/09/22 01:18:10;;;;;;;7.28;4.30;;;20.50;99.90;;;;;;5013071;28;20201;-73
2023/09/22 01:20:41;;;;;;;6.35;4.22;;;20.50;99.90;;;;;;5011867;28;20216;-73
2023/09/22 01:23:08;;;;;;;10.05;4.72;;;20.60;99.90;;;;;;5010713;28;20216;-73
2023/09/22 01:25:33;;;;;;;8.32;4.97;;;20.60;99.90;;;;;;5012235;28;20224;-73
2023/09/22 01:27:59;;;;;;;7.00;4.43;;;20.60;99.90;;;;;;5010965;28;20650;-73
2023/09/22 01:30:25;;;;;;;6.15;4.32;;;20.60;99.90;;;;;;5012194;28;20216;-74
2023/09/22 01:32:50;;;;;;;5.25;4.10;;;20.40;99.90;;;;;;5003846;28;20731;-73
2023/09/22 01:35:16;;;;;;;7.03;4.38;;;20.50;99.90;;;;;;5011911;28;20204;-74
2023/09/22 01:37:55;;;;;;;6.97;4.63;;;20.50;99.90;;;;;;5012080;28;20204;-74
2023/09/22 01:40:21;;;;;;;10.98;5.25;;;20.60;99.90;;;;;;5007099;28;20212;-74
2023/09/22 01:42:46;;;;;;;7.43;4.70;;;20.50;99.90;;;;;;5012053;28;20264;-73
2023/09/22 01:45:12;;;;;;;6.13;4.72;;;20.50;99.90;;;;;;5012018;28;20201;-74
2023/09/22 01:47:40;;;;;;;9.40;5.35;;;20.50;99.90;;;;;;5012444;28;20631;-73
2023/09/22 01:50:07;;;;;;;5.22;4.50;;;20.60;99.90;;;;;;5011324;28;20235;-73
2023/09/22 01:52:33;;;;;;;11.63;5.05;;;20.60;99.90;;;;;;5011728;28;20329;-73
2023/09/22 01:54:58;;;;;;;7.85;4.85;;;20.60;99.90;;;;;;5011306;28;20853;-73
2023/09/22 01:57:24;;;;;;;5.03;4.18;;;20.50;99.90;;;;;;5010748;28;20545;-73
2023/09/22 01:59:49;;;;;;;7.07;4.72;;;20.50;99.90;;;;;;5011213;28;20300;-73
2023/09/22 02:02:15;;;;;;;5.93;5.10;;;20.50;99.90;;;;;;5010110;28;20220;-73
2023/09/22 02:04:40;;;;;;;5.90;4.20;;;20.40;99.90;;;;;;5011342;28;20216;-72
2023/09/22 02:07:07;;;;;;;6.38;4.72;;;20.40;99.90;;;;;;5010007;28;20223;-73
2023/09/22 02:09:33;;;;;;;7.28;5.53;;;20.40;99.90;;;;;;5011703;28;20675;-72
2023/09/22 02:11:59;;;;;;;7.13;4.93;;;20.40;99.90;;;;;;5009789;28;20334;-72
2023/09/22 02:14:25;;;;;;;5.20;4.45;;;20.40;99.90;;;;;;5011213;28;20649;-72
2023/09/22 02:16:50;;;;;;;8.32;4.88;;;20.50;99.90;;;;;;5008682;28;20221;-71
2023/09/22 02:19:16;;;;;;;9.07;4.90;;;20.40;99.90;;;;;;5008979;28;20220;-72
2023/09/22 02:21:42;;;;;;;6.15;5.47;;;20.50;99.90;;;;;;5010969;28;20248;-72
2023/09/22 02:24:08;;;;;;;6.15;4.40;;;20.50;99.90;;;;;;5011438;28;20180;-72
2023/09/22 02:26:34;;;;;;;9.27;4.70;;;20.50;99.90;;;;;;5009792;28;20207;-73
2023/09/22 02:28:59;;;;;;;4.50;3.95;;;20.50;99.90;;;;;;5010360;28;20291;-73
2023/09/22 02:31:27;;;;;;;8.38;4.38;;;20.40;99.90;;;;;;5010623;28;20209;-73
2023/09/22 02:33:53;;;;;;;8.85;4.60;;;20.50;99.90;;;;;;5009163;28;20687;-70
2023/09/22 02:36:19;;;;;;;5.18;4.05;;;20.50;99.90;;;;;;5011223;28;20204;-72
2023/09/22 02:38:45;;;;;;;5.25;4.18;;;20.50;99.90;;;;;;5010853;28;20233;-72
2023/09/22 02:41:14;;;;;;;5.95;4.30;;;20.50;99.90;;;;;;5008952;28;20240;-71
2023/09/22 02:43:39;;;;;;;5.97;4.18;;;20.50;99.90;;;;;;5010861;28;20236;-73
2023/09/22 02:46:05;;;;;;;5.03;4.20;;;20.50;99.90;;;;;;5010268;28;20232;-72
2023/09/22 02:48:31;;;;;;;8.30;4.25;;;20.50;99.90;;;;;;5011119;28;20719;-74
2023/09/22 02:50:57;;;;;;;5.50;4.40;;;20.50;99.90;;;;;;5008959;28;20201;-73
2023/09/22 02:53:23;;;;;;;7.47;4.32;;;20.50;99.90;;;;;;5006688;28;20213;-73
2023/09/22 02:55:48;;;;;;;5.35;4.13;;;20.50;99.90;;;;;;5010449;28;20291;-72
2023/09/22 02:58:14;;;;;;;5.05;3.65;;;20.40;99.90;;;;;;5010473;28;20212;-74
2023/09/22 03:00:44;;;;;;;5.75;4.30;;;20.50;99.90;;;;;;5010028;28;20193;-73
2023/09/22 03:03:12;;;;;;;6.55;4.32;;;20.50;99.90;;;;;;5009454;28;20268;-74
2023/09/22 03:05:38;;;;;;;7.43;4.60;;;20.50;99.90;;;;;;5003131;28;20204;-73
2023/09/22 03:08:04;;;;;;;4.30;3.78;;;20.60;99.90;;;;;;5009805;28;20213;-73
2023/09/22 03:10:33;;;;;;;8.32;4.00;;;20.50;99.90;;;;;;5010063;28;20248;-73
2023/09/22 03:12:59;;;;;;;5.85;4.03;;;20.50;99.90;;;;;;5010010;28;20232;-72
2023/09/22 03:15:24;;;;;;;11.43;4.13;;;20.50;99.90;;;;;;5010495;28;20185;-73
2023/09/22 03:17:50;;;;;;;4.18;3.30;;;20.50;99.90;;;;;;5010117;28;20212;-72
2023/09/22 03:20:17;;;;;;;5.55;3.00;;;20.50;99.90;;;;;;5009531;28;20224;-73
2023/09/22 03:22:43;;;;;;;3.58;3.00;;;20.50;99.90;;;;;;5009084;28;20292;-73
2023/09/22 03:25:10;;;;;;;6.05;2.38;;;20.50;99.90;;;;;;5009780;28;20216;-73
2023/09/22 03:27:37;;;;;;;2.60;2.40;;;20.50;99.90;;;;;;5010450;28;20180;-73
2023/09/22 03:30:06;;;;;;;3.78;2.60;;;20.40;99.90;;;;;;5009916;28;21020;-71
2023/09/22 03:32:35;;;;;;;2.63;1.80;;;20.40;99.90;;;;;;5008804;28;20644;-73
2023/09/22 03:35:06;;;;;;;3.55;2.10;;;20.40;99.90;;;;;;5009708;28;20212;-72
2023/09/22 03:37:32;;;;;;;3.28;1.60;;;20.20;99.90;;;;;;5002066;28;20252;-73
2023/09/22 03:39:58;;;;;;;2.67;1.35;;;20.20;99.90;;;;;;5009872;28;20691;-72
2023/09/22 03:42:24;;;;;;;2.33;1.50;;;20.10;99.90;;;;;;5009104;28;20673;-72
2023/09/22 03:44:50;;;;;;;1.85;1.30;;;20.00;99.90;;;;;;5010044;28;20699;-73
2023/09/22 03:47:16;;;;;;;2.35;1.35;;;20.00;99.90;;;;;;5009883;28;20259;-73
2023/09/22 03:49:42;;;;;;;1.42;1.08;;;19.90;99.90;;;;;;5006994;28;20260;-73
2023/09/22 03:52:07;;;;;;;2.03;1.00;;;19.90;99.90;;;;;;5008230;28;20208;-73
2023/09/22 03:54:33;;;;;;;2.22;1.08;;;19.90;99.90;;;;;;5005732;28;20572;-73
2023/09/22 03:57:00;;;;;;;2.33;1.30;;;19.90;99.90;;;;;;5009881;28;20217;-72
2023/09/22 03:59:26;;;;;;;3.08;1.40;;;19.90;99.90;;;;;;5009893;28;20677;-73
2023/09/22 04:01:52;;;;;;;1.55;1.20;;;19.90;99.90;;;;;;5009683;28;20287;-73
2023/09/22 04:04:17;;;;;;;5.38;1.40;;;19.80;99.90;;;;;;5009471;28;20252;-73
2023/09/22 04:06:44;;;;;;;1.90;1.38;;;19.80;99.90;;;;;;5009900;28;20173;-73
2023/09/22 04:09:10;;;;;;;1.70;1.17;;;19.70;99.90;;;;;;5009968;28;20203;-73
2023/09/22 04:11:36;;;;;;;2.97;1.27;;;19.60;99.90;;;;;;5000540;28;20206;-73
2023/09/22 04:14:02;;;;;;;1.73;1.10;;;19.60;99.90;;;;;;5009675;28;20236;-73
2023/09/22 04:16:29;;;;;;;1.65;0.95;;;19.60;99.90;;;;;;5006629;28;20224;-73
2023/09/22 04:18:54;;;;;;;1.65;1.17;;;19.60;99.90;;;;;;5008453;28;20225;-73
2023/09/22 04:21:22;;;;;;;1.80;1.30;;;19.50;99.90;;;;;;5013330;28;20235;-73
2023/09/22 04:23:57;;;;;;;1.88;1.20;;;19.50;99.90;;;;;;5009574;28;20304;-73
2023/09/22 04:26:29;;;;;;;2.55;1.23;;;19.50;99.90;;;;;;5012298;28;20268;-73
2023/09/22 04:29:01;;;;;;;1.70;0.98;;;19.50;99.90;;;;;;5010692;28;20216;-74
2023/09/22 04:31:28;;;;;;;4.22;1.70;;;19.40;99.90;;;;;;5012866;28;20197;-73
2023/09/22 04:33:53;;;;;;;2.13;1.00;;;19.40;99.90;;;;;;5012269;28;21329;-73
2023/09/22 04:36:21;;;;;;;2.22;1.10;;;19.40;99.90;;;;;;5013512;28;20178;-73
2023/09/22 04:38:51;;;;;;;1.52;1.25;;;19.40;99.90;;;;;;5012919;28;20240;-72
2023/09/22 04:41:20;;;;;;;2.90;1.10;;;19.40;99.90;;;;;;5012400;28;20219;-73
2023/09/22 04:43:46;;;;;;;3.20;1.60;;;19.20;99.90;;;;;;5011928;28;20335;-73
2023/09/22 04:46:13;;;;;;;1.77;1.25;;;19.30;99.90;;;;;;5011430;28;20287;-73
2023/09/22 04:48:39;;;;;;;2.95;1.90;;;19.30;99.90;;;;;;5013115;28;20225;-73
2023/09/22 04:51:05;;;;;;;3.28;1.67;;;19.30;99.90;;;;;;5013045;28;20177;-73
2023/09/22 04:53:32;;;;;;;1.80;1.20;;;19.30;99.90;;;;;;5011663;28;20220;-73
2023/09/22 04:56:04;;;;;;;1.98;1.08;;;19.30;99.90;;;;;;5012632;28;20645;-73
2023/09/22 04:58:33;;;;;;;1.92;1.23;;;19.30;99.90;;;;;;5012624;28;20208;-73
2023/09/22 05:01:01;;;;;;;2.65;1.48;;;19.20;99.90;;;;;;5011109;28;20221;-73
2023/09/22 05:03:28;;;;;;;3.83;1.38;;;19.10;99.90;;;;;;5011655;28;20268;-73
2023/09/22 05:05:54;;;;;;;2.22;1.02;;;19.10;99.90;;;;;;5012415;28;20236;-73
2023/09/22 05:08:20;;;;;;;7.57;1.38;;;18.90;99.90;;;;;;5011510;28;20212;-73
2023/09/22 05:10:49;;;;;;;3.58;1.45;;;18.90;99.90;;;;;;5010858;28;20213;-73
2023/09/22 05:13:18;;;;;;;3.25;1.60;;;18.80;99.90;;;;;;5009932;28;20259;-73
2023/09/22 05:15:45;;;;;;;2.22;1.40;;;18.90;99.90;;;;;;5010800;28;20200;-73
2023/09/22 05:18:14;;;;;;;1.67;1.30;;;19.00;99.90;;;;;;5012842;28;20177;-73
2023/09/22 05:20:42;;;;;;;1.92;1.50;;;19.10;99.90;;;;;;5008458;28;20240;-73
2023/09/22 05:23:09;;;;;;;1.65;1.10;;;18.90;99.90;;;;;;5012118;28;20205;-73
2023/09/22 05:25:39;;;;;;;1.52;1.20;;;18.90;99.90;;;;;;5008419;28;20197;-73
2023/09/22 05:28:05;;;;;;;3.28;1.42;;;19.10;99.90;;;;;;5008722;28;20221;-74
2023/09/22 05:30:31;;;;;;;1.98;1.40;;;19.20;99.90;;;;;;5032473;23;20292;-74
2023/09/22 05:32:57;;;;;;;1.63;1.20;;;19.20;99.90;;;;;;5028870;28;20330;-73
2023/09/22 05:35:23;;;;;;;0.73;0.73;;;19.10;99.90;;;;;;5026800;28;20251;-74
2023/09/22 05:37:52;;;;;;;1.90;1.15;;;19.20;99.90;;;;;;5031043;28;20258;-72
2023/09/22 05:40:18;;;;;;;5.50;1.45;;;19.30;99.90;;;;;;5031002;28;20777;-72
2023/09/22 05:42:43;;;;;;;3.05;1.10;;;19.20;99.90;;;;;;5012995;28;20264;-73
2023/09/22 05:45:09;;;;;;;2.67;1.20;;;19.20;99.90;;;;;;5009013;28;20656;-73
2023/09/22 05:47:36;;;;;;;3.38;0.93;;;19.20;99.90;;;;;;5013338;28;20752;-76
2023/09/22 05:50:02;;;;;;;1.92;1.30;;;19.30;99.90;;;;;;5011455;28;20296;-75
2023/09/22 05:52:29;;;;;;;3.80;1.42;;;19.10;99.90;;;;;;5010572;28;20304;-73
2023/09/22 05:54:56;;;;;;;3.72;1.38;;;19.20;99.90;;;;;;5010514;28;20212;-73
2023/09/22 05:57:22;;;;;;;2.38;1.40;;;19.00;99.90;;;;;;5011208;28;20208;-72
2023/09/22 05:59:48;;;;;;;2.58;1.48;;;19.10;99.90;;;;;;5007469;28;20236;-74
2023/09/22 06:02:14;;;;;;;3.67;2.05;;;19.20;99.90;;;;;;5010398;28;20209;-73
2023/09/22 06:04:40;;;;;;;2.47;1.70;;;19.20;99.90;;;;;;5011408;28;20599;-75
2023/09/22 06:07:12;;;;;;;2.42;1.50;;;19.20;99.90;;;;;;5008317;28;20213;-75
2023/09/22 06:09:38;;;;;;;5.78;4.43;;;18.90;99.90;;;;;;5023886;28;20177;-75
2023/09/22 06:12:04;;;;;;;3.15;1.92;;;19.00;99.90;;;;;;5006200;28;20717;-74
2023/09/22 06:14:30;;;;;;;1.73;1.45;;;19.10;99.90;;;;;;5018599;28;20225;-75
2023/09/22 06:16:55;;;;;;;3.22;1.52;;;19.10;99.90;;;;;;5002931;28;20216;-72
2023/09/22 06:19:21;;;;;;;2.75;1.30;;;19.10;99.90;;;;;;5012252;28;20274;-73
2023/09/22 06:21:47;;;;;;;3.13;1.67;;;19.00;99.90;;;;;;5010409;28;20275;-74
2023/09/22 06:24:12;;;;;;;2.28;1.15;;;19.20;99.90;;;;;;5014708;28;20190;-74
2023/09/22 06:26:38;;;;;;;1.77;1.30;;;19.20;99.90;;;;;;5007341;28;20205;-75
2023/09/22 06:29:05;;;;;;;2.28;1.33;;;19.10;99.90;;;;;;5009535;28;20267;-73
2023/09/22 06:31:31;;;;;;;2.53;1.58;;;19.30;99.90;;;;;;5013529;28;20738;-74
2023/09/22 06:33:57;;;;;;;3.42;1.67;;;19.40;99.90;;;;;;5012684;28;20661;-74
2023/09/22 06:36:23;;;;;;;2.35;1.30;;;19.40;99.90;;;;;;5010219;28;20208;-74
2023/09/22 06:38:50;;;;;;;4.18;2.83;;;19.60;99.90;;;;;;5006311;28;20284;-73
2023/09/22 06:41:20;;;;;;;2.60;1.63;;;19.60;99.90;;;;;;5010038;28;20236;-76
2023/09/22 06:43:46;;;;;;;2.97;1.48;;;19.60;99.90;;;;;;5022531;28;20580;-74
2023/09/22 06:46:14;;;;;;;2.22;1.65;;;19.70;99.90;;;;;;5013371;28;20215;-75
2023/09/22 06:48:40;;;;;;;2.47;1.67;;;19.80;99.90;;;;;;5013488;28;20172;-75
2023/09/22 06:51:11;;;;;;;3.53;1.40;;;19.80;99.90;;;;;;5015990;28;20267;-79
2023/09/22 06:53:38;;;;;;;3.00;1.00;;;19.90;99.90;;;;;;5017475;28;20247;-74
2023/09/22 06:56:11;;;;;;;4.90;1.40;;;20.00;99.90;;;;;;5009320;28;20296;-74
2023/09/22 06:58:40;;;;;;;2.40;1.20;;;20.00;99.90;;;;;;5014377;28;20572;-74
2023/09/22 07:01:10;;;;;;;1.35;1.10;;;19.90;99.90;;;;;;5010424;28;20217;-79
2023/09/22 07:03:37;;;;;;;2.70;1.30;;;20.00;99.90;;;;;;5009763;28;20181;-74
2023/09/22 07:06:03;;;;;;;2.28;1.48;;;20.00;99.90;;;;;;5010751;28;20207;-74
2023/09/22 07:08:29;;;;;;;2.88;1.05;;;20.00;99.90;;;;;;5020868;28;20308;-74
2023/09/22 07:11:08;;;;;;;1.92;0.95;;;20.00;99.90;;;;;;5012925;28;20348;-74
2023/09/22 07:13:34;;;;;;;2.38;1.50;;;20.00;99.90;;;;;;5010708;28;20647;-74
2023/09/22 07:16:00;;;;;;;3.58;1.27;;;20.00;99.90;;;;;;5009395;28;20779;-74
2023/09/22 07:18:26;;;;;;;2.90;1.10;;;19.90;99.90;;;;;;5015522;28;20181;-74
2023/09/22 07:20:52;;;;;;;1.80;1.20;;;19.80;99.90;;;;;;5014410;28;20216;-74
2023/09/22 07:23:20;;;;;;;1.40;1.20;;;19.70;99.90;;;;;;5006570;28;20205;-74
2023/09/22 07:25:46;;;;;;;2.25;1.50;;;19.70;99.90;;;;;;5009379;28;20216;-75
2023/09/22 07:28:13;;;;;;;1.98;1.45;;;19.70;99.90;;;;;;5004457;28;20205;-74
2023/09/22 07:30:38;;;;;;;2.40;1.33;;;19.60;99.90;;;;;;5018105;28;20228;-75
2023/09/22 07:33:04;;;;;;;2.35;1.85;;;19.60;99.90;;;;;;5014781;28;20231;-74
2023/09/22 07:35:29;;;;;;;4.35;2.72;;;19.70;99.90;;;;;;5009824;28;20643;-74
2023/09/22 07:37:55;;;;;;;2.90;1.50;;;19.60;99.90;;;;;;5005423;28;20212;-75
2023/09/22 07:40:21;;;;;;;2.50;1.33;;;19.70;99.90;;;;;;5011030;28;20213;-74
2023/09/22 07:42:46;;;;;;;1.73;1.20;;;19.60;99.90;;;;;;5025818;28;20187;-74
2023/09/22 07:45:12;;;;;;;2.58;1.23;;;19.60;99.90;;;;;;5007163;28;20207;-73
2023/09/22 07:47:38;;;;;;;2.55;1.15;;;19.60;99.90;;;;;;5010264;28;20255;-75
2023/09/22 07:50:06;;;;;;;1.85;0.90;;;19.60;99.90;;;;;;5006048;28;20218;-74
2023/09/22 07:52:33;;;;;;;1.45;0.98;;;19.70;99.90;;;;;;5010755;28;20219;-74
2023/09/22 07:55:00;;;;;;;1.35;1.25;;;19.70;99.90;;;;;;5012442;28;20212;-74
2023/09/22 07:57:30;;;;;;;2.20;1.13;;;19.70;99.90;;;;;;5009659;28;20192;-73
2023/09/22 07:59:56;;;;;;;2.28;1.00;;;19.70;99.90;;;;;;5008435;28;20589;-75
2023/09/22 08:02:22;;;;;;;2.15;1.30;;;19.60;99.90;;;;;;5014112;28;20291;-73
2023/09/22 08:04:48;;;;;;;2.40;1.40;;;19.70;99.90;;;;;;5006542;28;20361;-74
2023/09/22 08:07:13;;;;;;;3.38;1.20;;;19.60;99.90;;;;;;5018426;28;20681;-75
2023/09/22 08:09:39;;;;;;;2.45;1.23;;;19.70;99.90;;;;;;5016164;28;20184;-73
2023/09/22 08:12:05;;;;;;;2.20;1.67;;;19.90;99.90;;;;;;5015912;28;20203;-74
2023/09/22 08:14:31;;;;;;;3.33;1.52;;;19.80;99.90;;;;;;5007507;28;20267;-74
2023/09/22 08:16:56;;;;;;;1.67;1.48;;;19.70;99.90;;;;;;5013511;28;20205;-74
2023/09/22 08:19:22;;;;;;;1.80;1.40;;;19.80;99.90;;;;;;5012306;28;20244;-75
2023/09/22 08:21:48;;;;;;;1.38;1.20;;;19.60;99.90;;;;;;5011457;28;20293;-76
2023/09/22 08:24:15;;;;;;;3.50;1.35;;;19.70;99.90;;;;;;5014287;28;20197;-75
2023/09/22 08:26:42;;;;;;;2.08;1.60;;;19.80;99.90;;;;;;5011462;28;20273;-75
2023/09/22 08:29:09;;;;;;;3.05;1.63;;;19.70;99.90;;;;;;5006146;28;20750;-74
2023/09/22 08:31:35;;;;;;;2.78;1.25;;;20.00;99.90;;;;;;5012889;28;20221;-75
2023/09/22 08:34:02;;;;;;;3.05;1.58;;;20.10;99.90;;;;;;5007117;28;20225;-76
2023/09/22 08:36:28;;;;;;;4.47;1.50;;;20.00;99.90;;;;;;5007455;28;20177;-72
2023/09/22 08:38:55;;;;;;;3.42;1.70;;;20.10;99.90;;;;;;5006685;28;20208;-74
2023/09/22 08:41:23;;;;;;;1.83;1.65;;;20.20;99.90;;;;;;5011713;28;20248;-73
2023/09/22 08:43:49;;;;;;;3.60;1.38;;;20.10;99.90;;;;;;5011386;28;20213;-74
2023/09/22 08:46:16;;;;;;;2.03;1.40;;;20.00;99.90;;;;;;5009222;28;20296;-76
2023/09/22 08:48:42;;;;;;;3.38;1.40;;;20.00;99.90;;;;;;5011678;28;20586;-74
2023/09/22 08:51:09;;;;;;;2.75;1.27;;;19.80;99.90;;;;;;5009173;28;20192;-75
2023/09/22 08:53:36;;;;;;;1.73;1.40;;;19.90;99.90;;;;;;5012084;28;20220;-74
2023/09/22 08:56:04;;;;;;;1.75;1.25;;;19.90;99.90;;;;;;5007411;28;20278;-74
2023/09/22 08:58:30;;;;;;;5.88;3.50;;;20.00;99.90;;;;;;5006022;28;20210;-73
2023/09/22 09:00:55;;;;;;;3.30;1.50;;;20.00;99.90;;;;;;5011704;28;20216;-76
2023/09/22 09:03:21;;;;;;;4.38;1.15;;;19.90;99.90;;;;;;5013367;28;20204;-74
2023/09/22 09:05:49;;;;;;;2.38;0.85;;;19.60;99.90;;;;;;5016286;28;20792;-79
2023/09/22 09:08:24;;;;;;;1.70;0.98;;;19.40;99.90;;;;;;5015784;28;20224;-74
2023/09/22 09:10:50;;;;;;;1.95;1.02;;;19.60;99.90;;;;;;5008499;28;20286;-73
2023/09/22 09:13:23;;;;;;;1.38;1.00;;;19.40;99.90;;;;;;5010952;28;20597;-73
2023/09/22 09:15:53;;;;;;;2.70;1.00;;;19.60;99.90;;;;;;5007614;28;20181;-72
2023/09/22 09:18:21;;;;;;;3.28;0.90;;;19.50;99.90;;;;;;5009990;28;20181;-74
2023/09/22 09:21:06;;;;;;;3.33;1.40;;;19.40;99.90;;;;;;5014417;28;20220;-76
2023/09/22 09:23:32;;;;;;;1.38;1.15;;;19.30;99.90;;;;;;5008629;28;20204;-71
2023/09/22 09:25:58;;;;;;;1.05;0.77;;;19.30;99.90;;;;;;5012309;28;20758;-74
2023/09/22 09:28:24;;;;;;;1.77;1.10;;;19.40;99.90;;;;;;5008548;28;20223;-75
2023/09/22 09:30:54;;;;;;;2.00;0.90;;;19.30;99.90;;;;;;5011553;28;20220;-72
2023/09/22 09:33:21;;;;;;;2.13;0.88;;;19.30;99.90;;;;;;5014417;28;20205;-75
2023/09/22 09:35:48;;;;;;;2.25;0.88;;;19.30;99.90;;;;;;5010818;28;20292;-77
2023/09/22 09:38:14;;;;;;;1.95;0.77;;;19.20;99.90;;;;;;5012686;28;20229;-76
2023/09/22 09:40:39;;;;;;;4.18;2.00;;;19.10;99.90;;;;;;5010703;28;20672;-77
2023/09/22 09:43:10;;;;;;;1.83;0.90;;;19.30;99.90;;;;;;5001820;28;20213;-73
2023/09/22 09:45:43;;;;;;;2.58;1.20;;;19.40;99.90;;;;;;5005234;28;20192;-72
2023/09/22 09:48:14;;;;;;;1.45;0.70;;;19.50;99.90;;;;;;5014652;28;20182;-74
2023/09/22 09:50:41;;;;;;;2.15;1.00;;;19.60;99.90;;;;;;5004839;28;20331;-73
2023/09/22 09:53:20;;;;;;;1.20;0.70;;;19.50;99.90;;;;;;5010004;28;20275;-73
2023/09/22 09:55:47;;;;;;;1.30;0.70;;;19.50;99.90;;;;;;5011811;28;20209;-73
2023/09/22 09:58:13;;;;;;;2.00;0.75;;;19.60;99.90;;;;;;5007360;28;20256;-74
2023/09/22 10:00:39;;;;;;;2.53;1.02;;;19.70;99.90;;;;;;5013618;28;20228;-74
2023/09/22 10:03:08;;;;;;;2.72;0.85;;;19.60;99.90;;;;;;5014410;28;20188;-73
2023/09/22 10:05:34;;;;;;;3.70;1.00;;;19.70;99.90;;;;;;5011281;28;20244;-73
2023/09/22 10:08:00;;;;;;;4.25;1.00;;;19.70;99.90;;;;;;5012279;28;20270;-74
2023/09/22 10:10:27;;;;;;;2.72;1.20;;;19.60;99.90;;;;;;5011177;28;20209;-73
2023/09/22 10:12:53;;;;;;;4.35;0.75;;;19.70;99.90;;;;;;5012357;28;20228;-75
2023/09/22 10:15:55;;;;;;;0.82;0.57;;;19.70;99.90;;;;;;5012379;28;20196;-75
2023/09/22 10:18:23;;;;;;;0.95;0.80;;;19.70;99.90;;;;;;5018418;28;20203;-75
2023/09/22 10:20:49;;;;;;;3.80;1.38;;;19.80;99.90;;;;;;5011254;28;20213;-70
2023/09/22 10:23:25;;;;;;;2.25;0.88;;;19.80;99.90;;;;;;5006530;28;20696;-74
2023/09/22 10:26:17;;;;;;;1.20;1.00;;;19.80;99.90;;;;;;5012699;28;20236;-73
2023/09/22 10:28:43;;;;;;;1.23;1.08;;;19.80;99.90;;;;;;5001458;28;20197;-74
2023/09/22 10:31:09;;;;;;;1.77;1.10;;;19.90;99.90;;;;;;5012834;28;20221;-73
2023/09/22 10:33:35;;;;;;;1.60;0.98;;;20.00;99.90;;;;;;5009088;28;20193;-74
2023/09/22 10:36:01;;;;;;;2.42;0.98;;;20.00;99.90;;;;;;5011027;28;20233;-74
2023/09/22 10:38:27;;;;;;;1.98;0.88;;;20.00;99.90;;;;;;5011522;28;20296;-75
2023/09/22 10:41:14;;;;;;;3.08;0.98;;;20.00;99.90;;;;;;5013072;28;20205;-74
2023/09/22 10:43:57;;;;;;;1.33;0.73;;;20.00;99.90;;;;;;5011134;28;20208;-72
2023/09/22 10:46:23;;;;;;;4.40;0.95;;;20.00;99.90;;;;;;5008734;28;20283;-75
2023/09/22 10:48:48;;;;;;;2.42;0.82;;;20.00;99.90;;;;;;5010236;28;20255;-72
2023/09/22 10:51:15;;;;;;;2.42;0.85;;;19.90;99.90;;;;;;5009596;28;20197;-71
2023/09/22 10:53:40;;;;;;;1.17;0.95;;;19.90;99.90;;;;;;5009557;28;20307;-71
2023/09/22 10:56:06;;;;;;;2.67;1.13;;;20.00;99.90;;;;;;5006744;28;20323;-74
2023/09/22 10:58:32;;;;;;;1.50;0.80;;;20.00;99.90;;;;;;5009450;28;20287;-74
2023/09/22 11:01:00;;;;;;;3.88;1.08;;;19.90;99.90;;;;;;5010865;28;20726;-76
2023/09/22 11:03:26;;;;;;;1.67;0.93;;;19.80;99.90;;;;;;5011731;28;20183;-74
2023/09/22 11:06:03;;;;;;;2.47;1.08;;;19.80;99.90;;;;;;5010415;28;20300;-73
2023/09/22 11:08:29;;;;;;;0.80;0.77;;;19.80;99.90;;;;;;5012534;28;20200;-74
2023/09/22 11:10:56;;;;;;;3.60;0.88;;;19.80;99.90;;;;;;5008535;28;20212;-74
2023/09/22 11:13:21;;;;;;;3.05;1.40;;;19.70;99.90;;;;;;5010451;28;20212;-73
2023/09/22 11:15:59;;;;;;;2.33;1.17;;;19.70;99.90;;;;;;5009746;28;20183;-73
2023/09/22 11:18:33;;;;;;;3.92;1.75;;;19.70;99.90;;;;;;5005332;28;20179;-74
2023/09/22 11:21:05;;;;;;;1.42;1.00;;;19.60;99.90;;;;;;5010856;28;20224;-74
2023/09/22 11:23:31;;;;;;;2.22;1.15;;;19.60;99.90;;;;;;5011030;28;20220;-75
2023/09/22 11:25:59;;;;;;;1.38;0.70;;;19.30;99.90;;;;;;5009304;28;20296;-74
2023/09/22 11:28:26;;;;;;;2.58;1.10;;;19.20;99.90;;;;;;5010064;28;20263;-75
2023/09/22 11:30:53;;;;;;;1.20;1.08;;;19.10;99.90;;;;;;5023213;28;20216;-74
2023/09/22 11:33:19;;;;;;;2.92;1.20;;;19.20;99.90;;;;;;5004922;28;20292;-73
2023/09/22 11:35:45;;;;;;;2.25;1.40;;;19.40;99.90;;;;;;5003104;28;20216;-71
2023/09/22 11:38:33;;;;;;;1.55;1.15;;;19.40;99.90;;;;;;5013788;28;20258;-74
2023/09/22 11:41:13;;;;;;;2.90;1.95;;;19.60;99.90;;;;;;5010263;28;20256;-74
2023/09/22 11:43:47;;;;;;;6.07;2.05;;;19.70;99.90;;;;;;5007527;28;20208;-74
2023/09/22 11:46:18;;;;;;;3.03;1.92;;;19.90;99.90;;;;;;5013721;28;20209;-74
2023/09/22 11:48:55;;;;;;;3.85;1.80;;;20.00;99.90;;;;;;5014405;28;20544;-74
2023/09/22 11:51:21;;;;;;;4.03;2.53;;;20.10;99.90;;;;;;5015502;28;20578;-74
2023/09/22 11:53:49;;;;;;;5.72;3.17;;;20.30;99.90;;;;;;5011582;28;20224;-72
2023/09/22 11:56:16;;;;;;;3.63;1.30;;;20.40;99.90;;;;;;5008872;28;20205;-74
2023/09/22 11:58:42;;;;;;;4.05;1.98;;;20.20;99.90;;;;;;5016350;28;20204;-74
2023/09/22 12:01:09;;;;;;;3.67;1.30;;;20.00;99.90;;;;;;5003290;28;20207;-73
2023/09/22 12:03:35;;;;;;;2.08;1.10;;;20.00;99.90;;;;;;5008697;28;20173;-74
2023/09/22 12:06:02;;;;;;;1.92;1.25;;;19.90;99.90;;;;;;5009564;28;20243;-74
2023/09/22 12:08:29;;;;;;;1.80;1.10;;;20.20;99.90;;;;;;5010284;28;20206;-74
2023/09/22 12:10:55;;;;;;;3.13;1.48;;;20.20;99.90;;;;;;5001123;28;20227;-74
2023/09/22 12:13:20;;;;;;;2.42;1.73;;;20.20;99.90;;;;;;5006146;28;20213;-74
2023/09/22 12:15:46;;;;;;;1.50;1.20;;;20.30;99.90;;;;;;5009939;28;20256;-72
2023/09/22 12:18:11;;;;;;;6.20;3.25;;;20.20;99.90;;;;;;5009129;28;20268;-75
2023/09/22 12:20:37;;;;;;;3.90;1.30;;;20.30;99.90;;;;;;5009479;28;20715;-74
2023/09/22 12:23:03;;;;;;;2.08;1.35;;;20.30;99.90;;;;;;5009776;28;20209;-74
2023/09/22 12:25:28;;;;;;;3.45;0.90;;;20.40;99.90;;;;;;5008535;28;20263;-74
2023/09/22 12:27:54;;;;;;;1.20;0.90;;;20.40;99.90;;;;;;5007825;28;20216;-74
2023/09/22 12:30:20;;;;;;;3.13;1.02;;;20.20;99.90;;;;;;5010135;28;20664;-72
2023/09/22 12:32:46;;;;;;;2.60;1.20;;;20.20;99.90;;;;;;5009782;28;20216;-73
2023/09/22 12:35:12;;;;;;;2.17;1.38;;;20.30;99.90;;;;;;5009879;28;20201;-74
2023/09/22 12:37:37;;;;;;;1.55;0.80;;;20.20;99.90;;;;;;5008302;28;20205;-73
2023/09/22 12:40:04;;;;;;;2.53;1.67;;;20.10;99.90;;;;;;5009373;28;20224;-74
2023/09/22 12:42:31;;;;;;;3.67;2.15;;;20.20;99.90;;;;;;5012629;28;20193;-74
2023/09/22 12:44:58;;;;;;;2.28;0.98;;;20.10;99.90;;;;;;5013190;28;20749;-74
2023/09/22 12:47:24;;;;;;;0.73;0.65;;;20.10;99.90;;;;;;5011801;28;20224;-74